createdAt,value
2019-06-25T05:22:03.041Z,27.87
2019-06-25T05:23:01.618Z,27.75
2019-06-25T05:24:00.215Z,27.84
2019-06-25T05:24:58.927Z,27.88
2019-06-25T05:25:57.527Z,27.9
2019-06-25T05:26:56.100Z,27.96
2019-06-25T05:27:54.959Z,27.97
2019-06-25T05:28:53.532Z,28.03
2019-06-25T05:29:52.130Z,28.06
2019-06-25T05:30:50.657Z,27.85
2019-06-25T05:31:49.281Z,27.85
2019-06-25T05:32:47.809Z,27.82
2019-06-25T05:33:46.312Z,27.79
2019-06-25T05:34:44.841Z,27.7
2019-06-25T05:35:43.368Z,27.67
2019-06-25T05:36:41.894Z,27.69
2019-06-25T05:37:40.433Z,27.51
2019-06-25T05:38:39.199Z,27.47
2019-06-25T05:39:37.841Z,27.49
2019-06-25T05:40:38.956Z,27.44
2019-06-25T05:41:35.200Z,27.47
2019-06-25T05:42:33.763Z,27.47
2019-06-25T05:43:32.328Z,27.36
2019-06-25T05:44:30.960Z,27.32
2019-06-25T05:45:29.431Z,27.39
2019-06-25T05:46:28.026Z,27.43
2019-06-25T05:47:26.603Z,27.43
2019-06-25T05:48:25.173Z,27.5
2019-06-25T05:49:23.713Z,27.62
2019-06-25T05:50:22.258Z,27.72
2019-06-25T05:51:20.832Z,27.87
2019-06-25T05:52:19.434Z,27.88
2019-06-25T05:53:17.975Z,28.17
2019-06-25T05:54:16.864Z,28.3
2019-06-25T05:55:15.484Z,28.3
2019-06-25T05:56:14.039Z,28.36
2019-06-25T05:57:12.619Z,28.77
2019-06-25T05:58:11.773Z,29.51
2019-06-25T05:59:10.322Z,29.89
2019-06-25T06:00:09.084Z,29.97
2019-06-25T06:01:07.670Z,30.17
2019-06-25T06:02:06.217Z,30.31
2019-06-25T06:03:16.562Z,30.34
2019-06-25T06:04:03.341Z,30.47
2019-06-25T06:05:02.013Z,30.42
2019-06-25T06:07:41.948Z,30.47
2019-06-25T06:08:40.514Z,30.53
2019-06-25T06:09:39.209Z,30.61
2019-06-25T06:10:37.768Z,30.64
2019-06-25T06:11:36.468Z,30.75
2019-06-25T06:12:35.077Z,30.62
2019-06-25T06:13:33.701Z,30.62
2019-06-25T06:14:32.262Z,30.64
2019-06-25T06:15:30.900Z,30.62
2019-06-25T06:16:29.454Z,30.75
2019-06-25T06:17:28.060Z,30.79
2019-06-25T06:18:26.729Z,30.88
2019-06-25T06:19:25.413Z,30.94
2019-06-25T06:20:23.994Z,30.82
2019-06-25T06:21:22.521Z,30.95
2019-06-25T06:22:21.200Z,30.98
2019-06-25T06:23:19.769Z,31.01
2019-06-25T06:24:21.010Z,31.04
2019-06-25T06:25:16.885Z,31.06
2019-06-25T06:26:18.090Z,31.16
2019-06-25T06:27:14.207Z,31.17
2019-06-25T06:28:12.999Z,31.14
2019-06-25T06:29:11.568Z,31.1
2019-06-25T06:30:10.121Z,31.13
2019-06-25T06:31:16.756Z,31.06
2019-06-25T06:32:07.536Z,30.91
2019-06-25T06:33:06.115Z,30.98
2019-06-25T06:34:04.683Z,31.01
2019-06-25T06:35:03.188Z,31.02
2019-06-25T06:36:01.755Z,30.98
2019-06-25T06:37:00.499Z,31.07
2019-06-25T06:38:45.040Z,31.34
2019-06-25T06:39:43.738Z,31.44
2019-06-25T06:40:42.355Z,31.54
2019-06-25T06:41:40.960Z,31.57
2019-06-25T06:42:39.623Z,31.63
2019-06-25T06:43:38.165Z,31.65
2019-06-25T06:44:36.724Z,31.58
2019-06-25T06:45:35.388Z,31.5
2019-06-25T06:46:33.936Z,31.48
2019-06-25T06:47:32.481Z,31.26
2019-06-25T06:48:31.134Z,31.1
2019-06-25T06:49:29.745Z,31.1
2019-06-25T06:50:28.259Z,31.04
2019-06-25T06:51:27.073Z,31.14
2019-06-25T06:52:25.674Z,31.04
2019-06-25T06:53:24.203Z,31.02
2019-06-25T06:54:22.756Z,31.09
2019-06-25T06:55:21.323Z,31.04
2019-06-25T06:56:19.873Z,31.04
2019-06-25T06:57:20.489Z,31.14
2019-06-25T06:58:16.977Z,31.19
2019-06-25T06:59:15.575Z,31.31
2019-06-25T07:00:14.154Z,31.28
2019-06-25T07:01:12.724Z,31.46
2019-06-25T07:02:11.529Z,31.43
2019-06-25T07:03:10.124Z,31.5
2019-06-25T07:04:09.037Z,31.57
2019-06-25T07:05:07.506Z,31.63
2019-06-25T07:06:06.088Z,31.56
2019-06-25T07:07:04.593Z,31.58
2019-06-25T07:08:03.172Z,31.66
2019-06-25T07:09:01.755Z,31.65
2019-06-25T07:10:00.378Z,31.69
2019-06-25T07:10:59.101Z,31.7
2019-06-25T07:11:57.671Z,31.68
2019-06-25T07:12:56.253Z,31.7
2019-06-25T07:13:54.919Z,31.61
2019-06-25T07:14:53.571Z,31.44
2019-06-25T07:15:52.135Z,31.38
2019-06-25T07:16:50.670Z,31.28
2019-06-25T07:17:49.233Z,31.41
2019-06-25T07:18:48.589Z,31.41
2019-06-25T07:19:46.322Z,31.5
2019-06-25T07:20:44.884Z,31.5
2019-06-25T07:21:43.421Z,31.51
2019-06-25T07:22:41.942Z,31.66
2019-06-25T07:23:40.632Z,31.62
2019-06-25T07:24:39.228Z,31.62
2019-06-25T07:25:37.948Z,31.66
2019-06-25T07:26:36.597Z,31.57
2019-06-25T07:27:38.283Z,31.58
2019-06-25T07:28:33.974Z,31.41
2019-06-25T07:29:32.338Z,31.31
2019-06-25T07:30:30.915Z,31.28
2019-06-25T07:31:29.487Z,31.28
2019-06-25T07:32:28.174Z,31.31
2019-06-25T07:33:26.778Z,31.31
2019-06-25T07:34:25.591Z,31.46
2019-06-25T07:37:00.534Z,31.32
2019-06-25T07:37:59.152Z,31.31
2019-06-25T07:41:38.131Z,31.5
2019-06-25T07:42:36.882Z,31.53
2019-06-25T07:43:35.558Z,31.46
2019-06-25T07:44:34.125Z,31.56
2019-06-25T07:45:32.727Z,31.48
2019-06-25T07:46:31.353Z,31.56
2019-06-25T07:47:32.270Z,31.62
2019-06-25T07:48:28.535Z,31.68
2019-06-25T07:49:27.093Z,31.62
2019-06-25T07:50:25.656Z,31.66
2019-06-25T07:51:24.301Z,31.7
2019-06-25T07:52:22.941Z,31.63
2019-06-25T07:53:21.561Z,31.63
2019-06-25T07:54:20.100Z,31.68
2019-06-25T07:55:18.682Z,31.63
2019-06-25T07:56:17.359Z,31.62
2019-06-25T07:57:15.928Z,31.72
2019-06-25T07:58:14.579Z,31.68
2019-06-25T07:59:13.293Z,31.68
2019-06-25T08:00:11.836Z,31.69
2019-06-25T08:01:10.382Z,31.53
2019-06-25T08:02:08.930Z,31.54
2019-06-25T08:03:07.469Z,31.65
2019-06-25T08:04:06.034Z,31.65
2019-06-25T08:05:04.547Z,31.75
2019-06-25T08:06:03.261Z,31.8
2019-06-25T08:07:01.902Z,31.73
2019-06-25T08:09:42.158Z,31.69
2019-06-25T08:10:41.783Z,31.73
2019-06-25T08:11:39.332Z,31.76
2019-06-25T08:12:37.880Z,31.88
2019-06-25T08:13:36.441Z,31.91
2019-06-25T08:14:34.972Z,31.78
2019-06-25T08:15:33.744Z,31.84
2019-06-25T08:16:32.147Z,31.88
2019-06-25T08:37:51.076Z,31.5
2019-06-25T08:38:49.679Z,31.5
2019-06-25T08:39:48.219Z,31.48
2019-06-25T08:40:46.947Z,31.51
2019-06-25T08:41:45.704Z,31.44
2019-06-25T08:42:44.280Z,31.36
2019-06-25T08:43:42.854Z,31.38
2019-06-25T08:44:41.536Z,31.35
2019-06-25T08:45:40.079Z,31.16
2019-06-25T08:46:38.708Z,31.16
2019-06-25T08:47:37.434Z,31.29
2019-06-25T08:48:35.947Z,31.25
2019-06-25T08:49:34.506Z,31.17
2019-06-25T08:50:33.093Z,31.17
2019-06-25T08:51:31.872Z,31.21
2019-06-25T08:52:30.424Z,31.28
2019-06-25T08:53:29.003Z,31.32
2019-06-25T08:54:27.628Z,31.29
2019-06-25T08:55:26.258Z,31.31
2019-06-25T08:56:24.764Z,31.32
2019-06-25T08:57:23.680Z,31.41
2019-06-25T08:58:22.196Z,31.25
2019-06-25T08:59:20.782Z,31.31
2019-06-25T09:00:19.582Z,31.12
2019-06-25T09:01:18.127Z,31.14
2019-06-25T09:02:16.766Z,31.2
2019-06-25T09:03:15.444Z,31.31
2019-06-25T09:04:14.119Z,31.31
2019-06-25T09:05:12.642Z,31.31
2019-06-25T09:06:11.339Z,31.35
2019-06-25T09:07:09.902Z,31.25
2019-06-25T09:08:08.516Z,31.35
2019-06-25T09:09:07.105Z,31.31
2019-06-25T09:10:05.640Z,31.29
2019-06-25T09:11:04.442Z,31.31
2019-06-25T09:12:02.731Z,31.19
2019-06-25T09:13:01.615Z,31.26
2019-06-25T09:13:59.889Z,31.26
2019-06-25T09:14:58.438Z,31.21
2019-06-25T09:15:57.108Z,31.19
2019-06-25T09:16:55.709Z,31.12
2019-06-25T09:17:54.252Z,31.07
2019-06-25T09:18:53.083Z,31.12
2019-06-25T09:19:51.681Z,31.2
2019-06-25T09:20:50.389Z,31.1
2019-06-25T09:21:48.921Z,31.2
2019-06-25T09:22:47.480Z,31.09
2019-06-25T09:23:46.018Z,31.14
2019-06-25T09:24:44.550Z,31.1
2019-06-25T09:25:43.040Z,31.1
2019-06-25T09:26:41.629Z,31.01
2019-06-25T09:27:40.219Z,30.86
2019-06-25T09:28:38.817Z,31.02
2019-06-25T09:29:37.578Z,31.02
2019-06-25T09:30:37.265Z,30.95
2019-06-25T09:31:34.810Z,31.02
2019-06-25T09:32:33.468Z,31.04
2019-06-25T09:34:42.236Z,31.04
2019-06-25T09:35:40.768Z,31.04
2019-06-25T09:36:39.428Z,31.09
2019-06-25T09:37:37.929Z,31.16
2019-06-25T09:38:36.509Z,31.07
2019-06-25T09:39:35.265Z,31.12
2019-06-25T09:40:33.998Z,31.21
2019-06-25T09:43:19.278Z,31.14
2019-06-25T09:44:16.359Z,31.17
2019-06-25T09:45:15.062Z,31.2
2019-06-25T09:46:13.766Z,31.25
2019-06-25T09:49:34.335Z,31.17
2019-06-25T09:53:22.767Z,31.19
2019-06-25T09:55:45.853Z,31.19
2019-06-25T09:56:59.840Z,31.25
2019-06-25T10:02:49.924Z,31.17
2019-06-25T10:07:38.435Z,31.31
2019-06-25T10:35:24.322Z,31.44
2019-06-25T10:36:22.922Z,31.48
2019-06-25T10:37:21.619Z,31.54
2019-06-25T10:38:20.147Z,31.54
2019-06-25T10:39:18.697Z,31.48
2019-06-25T10:40:17.501Z,31.5
2019-06-25T10:41:16.027Z,31.46
2019-06-25T10:42:14.583Z,31.57
2019-06-25T10:43:13.242Z,31.62
2019-06-25T10:44:11.764Z,31.54
2019-06-25T10:45:10.340Z,31.39
2019-06-25T10:46:08.871Z,31.39
2019-06-25T10:47:07.538Z,31.39
2019-06-25T10:48:06.098Z,31.41
2019-06-25T10:49:05.310Z,31.56
2019-06-25T10:50:03.873Z,31.47
2019-06-25T10:51:02.488Z,31.41
2019-06-25T10:52:01.013Z,31.44
2019-06-25T10:52:59.713Z,31.39
2019-06-25T10:53:58.247Z,31.5
2019-06-25T10:54:56.798Z,31.48
2019-06-25T10:55:55.853Z,31.46
2019-06-25T10:56:53.981Z,31.38
2019-06-25T10:57:52.575Z,31.41
2019-06-25T10:58:51.324Z,31.39
2019-06-25T10:59:49.915Z,31.51
2019-06-25T11:00:48.476Z,31.54
2019-06-25T11:01:47.045Z,31.54
2019-06-25T11:02:45.548Z,31.58
2019-06-25T11:03:44.090Z,31.51
2019-06-25T11:04:42.647Z,31.57
2019-06-25T11:05:41.254Z,31.57
2019-06-25T11:06:53.304Z,31.68
2019-06-25T11:07:39.170Z,31.68
2019-06-25T11:08:36.972Z,31.73
2019-06-25T11:09:35.796Z,31.81
2019-06-25T11:10:34.358Z,31.81
2019-06-25T11:11:33.115Z,31.84
2019-06-25T11:12:31.740Z,31.76
2019-06-25T11:13:30.295Z,31.91
2019-06-25T11:14:28.818Z,31.88
2019-06-25T11:15:27.367Z,31.89
2019-06-25T11:16:25.969Z,32.06
2019-06-25T11:17:24.504Z,32.08
2019-06-25T11:18:23.153Z,32.1
2019-06-25T11:19:23.783Z,32.11
2019-06-25T11:20:22.373Z,32.19
2019-06-25T11:21:20.942Z,32.25
2019-06-25T11:22:19.616Z,32.28
2019-06-25T11:23:18.226Z,32.22
2019-06-25T11:24:17.482Z,32.3
2019-06-25T11:25:16.009Z,32.32
2019-06-25T11:26:22.396Z,32.29
2019-06-25T11:27:13.230Z,32.23
2019-06-25T11:28:11.919Z,32.41
2019-06-25T11:29:10.441Z,32.25
2019-06-25T11:30:08.980Z,32.29
2019-06-25T11:31:07.559Z,32.3
2019-06-25T11:32:06.097Z,32.44
2019-06-25T11:33:04.617Z,32.41
2019-06-25T11:34:03.117Z,32.35
2019-06-25T11:35:01.957Z,32.52
2019-06-25T11:36:00.239Z,32.43
2019-06-25T11:36:58.913Z,32.57
2019-06-25T11:37:57.741Z,32.52
2019-06-25T11:38:56.231Z,32.59
2019-06-25T11:39:54.901Z,32.56
2019-06-25T11:40:53.573Z,32.55
2019-06-25T11:41:52.126Z,32.62
2019-06-25T11:42:50.666Z,32.62
2019-06-25T11:43:49.201Z,32.62
2019-06-25T11:44:47.754Z,32.62
2019-06-25T11:48:26.496Z,32.47
2019-06-25T11:49:25.053Z,32.52
2019-06-25T11:50:23.753Z,32.59
2019-06-25T11:51:22.450Z,32.62
2019-06-25T11:52:21.080Z,32.55
2019-06-25T11:53:19.708Z,32.69
2019-06-25T11:54:18.286Z,32.74
2019-06-25T11:55:16.825Z,32.7
2019-06-25T11:56:15.407Z,32.65
2019-06-25T11:57:14.480Z,32.65
2019-06-25T11:58:12.488Z,32.62
2019-06-25T11:59:11.037Z,32.66
2019-06-25T12:00:09.614Z,32.75
2019-06-25T12:01:08.193Z,32.72
2019-06-25T12:02:06.790Z,32.59
2019-06-25T12:03:05.558Z,32.7
2019-06-25T12:04:04.082Z,32.67
2019-06-25T12:05:02.687Z,32.7
2019-06-25T12:06:01.549Z,32.66
2019-06-25T12:06:59.967Z,32.66
2019-06-25T12:07:58.521Z,32.84
2019-06-25T12:08:57.047Z,32.72
2019-06-25T12:09:55.592Z,32.77
2019-06-25T12:10:54.136Z,32.7
2019-06-25T12:11:53.545Z,32.66
2019-06-25T12:12:52.207Z,32.69
2019-06-25T12:13:50.813Z,32.69
2019-06-25T12:14:49.400Z,32.82
2019-06-25T12:15:48.735Z,32.78
2019-06-25T12:16:47.505Z,32.72
2019-06-25T12:19:21.625Z,32.75
2019-06-25T12:20:20.170Z,32.88
2019-06-25T12:21:18.771Z,32.77
2019-06-25T12:22:17.461Z,32.74
2019-06-25T12:23:16.063Z,32.81
2019-06-25T12:24:14.657Z,32.81
2019-06-25T12:25:13.339Z,32.78
2019-06-25T12:26:11.873Z,32.75
2019-06-25T12:27:10.491Z,32.78
2019-06-25T12:28:09.196Z,32.81
2019-06-25T12:29:07.818Z,32.82
2019-06-25T12:30:06.365Z,32.79
2019-06-25T12:31:05.057Z,32.77
2019-06-25T12:32:08.323Z,32.78
2019-06-25T12:33:06.839Z,32.72
2019-06-25T12:34:05.600Z,32.81
2019-06-25T12:35:04.150Z,32.69
2019-06-25T12:36:02.705Z,32.78
2019-06-25T12:38:42.769Z,32.78
2019-06-25T12:40:50.012Z,32.79
2019-06-25T12:42:05.457Z,32.81
2019-06-25T12:44:33.297Z,32.87
2019-06-25T12:51:53.762Z,33.12
2019-06-25T13:02:29.860Z,33
2019-06-25T13:03:27.619Z,33
2019-06-25T13:04:26.177Z,33.01
2019-06-25T13:05:24.789Z,33.09
2019-06-25T13:06:23.440Z,33.07
2019-06-25T13:07:25.875Z,33.15
2019-06-25T13:08:20.724Z,33.18
2019-06-25T13:10:43.937Z,33.23
2019-06-25T13:14:14.011Z,33.22
2019-06-25T13:15:12.591Z,33.26
2019-06-25T13:16:11.223Z,33.19
2019-06-25T13:17:25.436Z,33.28
2019-06-25T13:18:24.207Z,33.28
2019-06-25T13:19:22.821Z,33.28
2019-06-25T13:20:21.484Z,33.32
2019-06-25T13:24:21.025Z,33.23
2019-06-25T13:25:19.745Z,33.18
2019-06-25T13:26:18.299Z,33.32
2019-06-25T13:27:20.219Z,33.26
2019-06-25T13:28:18.739Z,33.26
2019-06-25T13:29:17.771Z,33.35
2019-06-25T13:30:16.324Z,33.29
2019-06-25T13:31:14.840Z,33.31
2019-06-25T13:32:13.424Z,33.31
2019-06-25T13:33:11.984Z,33.28
2019-06-25T13:34:10.618Z,33.37
2019-06-25T13:35:09.147Z,33.44
2019-06-25T13:36:07.671Z,33.44
2019-06-25T13:37:06.254Z,33.39
2019-06-25T13:38:04.789Z,33.44
2019-06-25T13:39:03.475Z,33.41
2019-06-25T13:40:02.033Z,33.44
2019-06-25T13:42:04.465Z,33.51
2019-06-25T13:42:59.153Z,33.44
2019-06-25T13:43:57.725Z,33.47
2019-06-25T13:44:56.254Z,33.49
2019-06-25T13:45:54.825Z,33.45
2019-06-25T13:46:53.461Z,33.45
2019-06-25T13:47:52.016Z,33.5
2019-06-25T13:48:50.542Z,33.44
2019-06-25T13:49:49.128Z,33.45
2019-06-25T13:50:48.024Z,33.39
2019-06-25T13:51:46.565Z,33.44
2019-06-25T13:52:45.331Z,33.42
2019-06-25T13:53:43.975Z,33.37
2019-06-25T13:54:42.607Z,33.28
2019-06-25T13:57:23.088Z,33.32
2019-06-25T13:58:21.754Z,33.26
2019-06-25T13:59:20.320Z,33.31
2019-06-25T14:00:18.845Z,33.34
2019-06-25T14:01:17.420Z,33.34
2019-06-25T14:02:15.995Z,33.29
2019-06-25T14:03:14.546Z,33.34
2019-06-25T14:04:13.178Z,33.28
2019-06-25T14:05:11.875Z,33.34
2019-06-25T14:06:10.427Z,33.28
2019-06-25T14:07:09.291Z,33.31
2019-06-25T14:08:07.918Z,33.26
2019-06-25T14:09:06.494Z,33.29
2019-06-25T14:10:05.012Z,33.28
2019-06-25T14:11:03.584Z,33.23
2019-06-25T14:12:02.188Z,33.35
2019-06-25T14:13:01.769Z,33.31
2019-06-25T14:13:59.434Z,33.28
2019-06-25T14:16:22.385Z,33.21
2019-06-25T14:17:20.906Z,33.18
2019-06-25T14:18:19.471Z,33.22
2019-06-25T14:19:18.129Z,33.29
2019-06-25T14:20:16.716Z,33.18
2019-06-25T14:21:15.303Z,33.22
2019-06-25T14:22:13.866Z,33.16
2019-06-25T14:26:06.080Z,33.16
2019-06-25T14:28:37.158Z,33.19
2019-06-25T14:29:35.957Z,33.18
2019-06-25T14:30:34.515Z,33.15
2019-06-25T14:31:33.117Z,33.28
2019-06-25T14:32:31.805Z,33.19
2019-06-25T14:33:30.462Z,33.18
2019-06-25T14:34:28.972Z,33.16
2019-06-25T14:35:27.528Z,33.18
2019-06-25T14:36:26.087Z,33.18
2019-06-25T14:56:52.086Z,33.23
2019-06-25T14:57:50.611Z,33.19
2019-06-25T14:58:49.148Z,33.15
2019-06-25T14:59:47.808Z,33.18
2019-06-25T15:00:46.347Z,33.22
2019-06-25T15:01:45.003Z,33.19
2019-06-25T15:02:43.473Z,33.19
2019-06-25T15:03:42.115Z,33.23
2019-06-25T15:04:40.814Z,33.16
2019-06-25T15:05:39.385Z,33.19
2019-06-25T15:06:38.012Z,33.19
2019-06-25T15:07:36.572Z,33.19
2019-06-25T15:08:35.216Z,33.26
2019-06-25T15:09:43.785Z,33.19
2019-06-25T15:10:32.338Z,33.22
2019-06-25T15:11:30.976Z,33.28
2019-06-25T15:12:29.666Z,33.23
2019-06-25T15:13:28.265Z,33.21
2019-06-25T15:14:26.795Z,33.23
2019-06-25T15:15:32.653Z,33.22
2019-06-25T15:16:24.047Z,33.29
2019-06-25T15:17:22.583Z,33.16
2019-06-25T15:18:21.253Z,33.21
2019-06-25T15:19:19.837Z,33.19
2019-06-25T15:20:18.288Z,33.16
2019-06-25T15:21:16.827Z,33.18
2019-06-25T15:22:15.472Z,33.19
2019-06-25T15:23:16.546Z,33.21
2019-06-25T15:24:12.717Z,33.21
2019-06-25T15:25:11.416Z,33.15
2019-06-25T15:26:10.054Z,33.28
2019-06-25T15:27:08.636Z,33.22
2019-06-25T15:28:07.290Z,33.23
2019-06-25T15:29:05.840Z,33.19
2019-06-25T15:30:04.367Z,33.21
2019-06-25T15:31:02.901Z,33.19
2019-06-25T15:32:01.522Z,33.22
2019-06-25T15:33:00.057Z,33.22
2019-06-25T15:33:58.618Z,33.18
2019-06-25T15:34:57.155Z,33.16
2019-06-25T15:35:55.676Z,33.12
2019-06-25T15:36:54.235Z,33.22
2019-06-25T15:37:52.777Z,33.19
2019-06-25T15:38:51.500Z,33.16
2019-06-25T15:39:50.139Z,33.18
2019-06-25T15:40:49.431Z,33.11
2019-06-25T15:41:48.175Z,33.09
2019-06-25T15:42:46.682Z,33.09
2019-06-25T15:43:45.597Z,33.12
2019-06-25T15:44:44.138Z,33.06
2019-06-25T15:45:42.734Z,33.07
2019-06-25T15:46:41.634Z,33.11
2019-06-25T15:47:40.280Z,33.04
2019-06-25T15:48:39.086Z,33.07
2019-06-25T15:49:37.788Z,33.09
2019-06-25T15:50:36.372Z,33.09
2019-06-25T15:51:34.950Z,33.16
2019-06-25T15:52:33.690Z,33.12
2019-06-25T15:53:32.226Z,33.06
2019-06-25T15:54:30.765Z,33.15
2019-06-25T15:55:29.642Z,33.12
2019-06-25T15:56:28.210Z,33.18
2019-06-25T15:57:26.861Z,33.19
2019-06-25T15:58:25.431Z,33.21
2019-06-25T15:59:23.959Z,33.15
2019-06-25T16:00:22.499Z,33.07
2019-06-25T16:01:21.074Z,33.12
2019-06-25T16:02:19.606Z,33.09
2019-06-25T16:03:18.142Z,33.11
2019-06-25T16:04:16.728Z,33.09
2019-06-25T16:05:15.533Z,33.15
2019-06-25T16:06:14.211Z,33.15
2019-06-25T16:07:12.907Z,33.15
2019-06-25T16:08:11.489Z,33.14
2019-06-25T16:10:12.114Z,33.09
2019-06-25T16:11:10.660Z,33.04
2019-06-25T16:12:09.251Z,33.06
2019-06-25T16:13:07.859Z,33.06
2019-06-25T16:14:06.502Z,33.07
2019-06-25T16:15:05.043Z,33.04
2019-06-25T16:16:03.673Z,33.06
2019-06-25T16:17:02.345Z,33.03
2019-06-25T16:18:00.875Z,33.11
2019-06-25T16:18:59.498Z,33.07
2019-06-25T16:19:58.121Z,33.09
2019-06-25T16:20:56.663Z,33.12
2019-06-25T16:21:55.265Z,33.16
2019-06-25T16:22:53.913Z,33.09
2019-06-25T16:23:52.463Z,33.15
2019-06-25T16:24:51.121Z,33.18
2019-06-25T16:25:49.797Z,33.23
2019-06-25T16:26:48.300Z,33.14
2019-06-25T16:27:46.927Z,33.18
2019-06-25T16:28:45.445Z,33.18
2019-06-25T16:29:44.047Z,33.19
2019-06-25T16:30:42.651Z,33.18
2019-06-25T16:31:41.205Z,33.15
2019-06-25T16:32:39.928Z,33.16
2019-06-25T16:33:38.463Z,33.03
2019-06-25T16:34:36.984Z,33.01
2019-06-25T16:35:35.578Z,33
2019-06-25T16:36:34.428Z,32.96
2019-06-25T16:37:32.997Z,32.94
2019-06-25T16:38:31.790Z,32.96
2019-06-25T16:39:30.071Z,32.85
2019-06-25T16:40:28.615Z,32.89
2019-06-25T16:41:27.245Z,32.88
2019-06-25T16:42:25.910Z,32.82
2019-06-25T16:43:24.440Z,32.82
2019-06-25T16:44:23.020Z,32.81
2019-06-25T16:45:21.984Z,32.93
2019-06-25T16:46:20.500Z,32.87
2019-06-25T16:47:19.038Z,32.89
2019-06-25T16:48:17.639Z,32.97
2019-06-25T16:49:16.215Z,32.94
2019-06-25T16:50:14.749Z,32.96
2019-06-25T16:51:13.296Z,32.97
2019-06-25T16:52:11.907Z,32.97
2019-06-25T16:53:10.439Z,32.99
2019-06-25T16:54:09.085Z,32.97
2019-06-25T16:55:07.716Z,32.93
2019-06-25T16:56:06.307Z,33
2019-06-25T16:57:04.819Z,33
2019-06-25T16:58:03.612Z,33.06
2019-06-25T16:59:02.175Z,33.03
2019-06-25T17:00:00.797Z,33.03
2019-06-25T17:00:59.328Z,33.06
2019-06-25T17:01:58.369Z,33.07
2019-06-25T17:02:56.406Z,33.06
2019-06-25T17:03:54.984Z,33.09
2019-06-25T17:04:53.566Z,33.06
2019-06-25T17:05:52.100Z,33.09
2019-06-25T17:06:50.681Z,33.04
2019-06-25T17:07:49.316Z,33.11
2019-06-25T17:08:49.342Z,33.07
2019-06-25T17:09:46.521Z,33.09
2019-06-25T17:10:45.318Z,33.11
2019-06-25T17:11:47.043Z,33.11
2019-06-25T17:12:42.568Z,33.15
2019-06-25T17:13:41.098Z,33.18
2019-06-25T17:14:39.624Z,33.18
2019-06-25T17:15:38.172Z,33.19
2019-06-25T17:16:36.699Z,33.19
2019-06-25T17:17:35.604Z,33.18
2019-06-25T17:18:34.175Z,33.23
2019-06-25T17:19:32.692Z,33.26
2019-06-25T17:20:31.396Z,33.18
2019-06-25T17:21:29.977Z,33.23
2019-06-25T17:22:28.536Z,33.19
2019-06-25T17:23:27.101Z,33.14
2019-06-25T17:24:25.640Z,33.23
2019-06-25T17:25:27.015Z,33.26
2019-06-25T17:26:22.750Z,33.28
2019-06-25T17:30:01.989Z,33.28
2019-06-25T17:31:00.471Z,33.22
2019-06-25T17:31:59.058Z,33.28
2019-06-25T17:32:57.796Z,33.22
2019-06-25T17:33:56.371Z,33.29
2019-06-25T17:34:54.915Z,33.26
2019-06-25T17:35:53.458Z,33.22
2019-06-25T17:36:52.023Z,33.21
2019-06-25T17:37:50.589Z,33.21
2019-06-25T17:38:49.216Z,33.16
2019-06-25T17:39:51.313Z,33.06
2019-06-25T17:40:46.548Z,33.09
2019-06-25T17:41:45.225Z,33.04
2019-06-25T17:42:43.896Z,33.03
2019-06-25T17:43:46.930Z,32.97
2019-06-25T17:44:40.999Z,32.94
2019-06-25T17:45:39.564Z,32.84
2019-06-25T17:46:38.176Z,32.81
2019-06-25T17:47:36.784Z,32.85
2019-06-25T17:48:35.407Z,32.85
2019-06-25T17:49:33.996Z,32.87
2019-06-25T17:50:32.563Z,32.72
2019-06-25T17:51:31.466Z,32.79
2019-06-25T17:52:30.160Z,32.78
2019-06-25T17:53:36.373Z,32.74
2019-06-25T17:54:27.748Z,32.67
2019-06-25T17:55:25.809Z,32.7
2019-06-25T17:56:24.481Z,32.74
2019-06-25T17:57:23.148Z,32.69
2019-06-25T17:58:21.888Z,32.66
2019-06-25T17:59:20.461Z,32.72
2019-06-25T18:00:19.038Z,32.63
2019-06-25T18:01:17.653Z,32.74
2019-06-25T18:02:16.219Z,32.69
2019-06-25T18:03:14.738Z,32.56
2019-06-25T18:04:13.295Z,32.63
2019-06-25T18:05:11.843Z,32.6
2019-06-25T18:06:10.361Z,32.57
2019-06-25T18:07:08.909Z,32.56
2019-06-25T18:08:07.471Z,32.6
2019-06-25T18:09:06.045Z,32.5
2019-06-25T18:10:08.057Z,32.48
2019-06-25T18:11:03.302Z,32.52
2019-06-25T18:12:01.968Z,32.51
2019-06-25T18:13:00.487Z,32.5
2019-06-25T18:13:59.034Z,32.47
2019-06-25T18:14:57.713Z,32.47
2019-06-25T18:15:56.365Z,32.43
2019-06-25T18:16:54.886Z,32.38
2019-06-25T18:17:53.592Z,32.44
2019-06-25T18:18:52.168Z,32.38
2019-06-25T18:19:50.713Z,32.41
2019-06-25T18:20:49.450Z,32.41
2019-06-25T18:21:47.869Z,32.32
2019-06-25T18:22:46.410Z,32.33
2019-06-25T18:23:44.978Z,32.26
2019-06-25T18:24:43.571Z,32.29
2019-06-25T18:25:42.241Z,32.3
2019-06-25T18:26:40.780Z,32.26
2019-06-25T18:27:39.501Z,32.19
2019-06-25T18:28:38.192Z,32.25
2019-06-25T18:29:36.748Z,32.29
2019-06-25T18:30:35.287Z,32.18
2019-06-25T18:31:33.792Z,32.15
2019-06-25T18:32:32.366Z,32.15
2019-06-25T18:33:30.875Z,32.06
2019-06-25T18:34:29.457Z,32.11
2019-06-25T18:35:28.044Z,32.15
2019-06-25T18:36:26.638Z,32.1
2019-06-25T18:37:25.268Z,32.15
2019-06-25T18:38:23.982Z,32.1
2019-06-25T18:39:22.507Z,32.08
2019-06-25T18:40:24.006Z,32.08
2019-06-25T18:41:19.733Z,31.96
2019-06-25T18:42:18.353Z,31.96
2019-06-25T18:43:16.929Z,32.06
2019-06-25T18:44:15.503Z,31.95
2019-06-25T18:45:14.058Z,32.04
2019-06-25T18:46:12.641Z,32.03
2019-06-25T18:47:11.161Z,31.95
2019-06-25T18:48:09.685Z,31.95
2019-06-25T18:49:08.243Z,31.96
2019-06-25T18:50:06.823Z,32.03
2019-06-25T18:51:05.508Z,32.03
2019-06-25T18:52:04.046Z,31.99
2019-06-25T18:53:02.583Z,31.93
2019-06-25T18:54:01.141Z,31.95
2019-06-25T18:54:59.894Z,31.95
2019-06-25T18:55:58.468Z,31.95
2019-06-25T18:56:57.052Z,31.91
2019-06-25T18:57:55.594Z,31.95
2019-06-25T18:58:54.253Z,31.95
2019-06-25T18:59:52.795Z,31.88
2019-06-25T19:00:51.466Z,31.88
2019-06-25T19:01:49.906Z,31.88
2019-06-25T19:02:48.430Z,31.76
2019-06-25T19:03:46.965Z,31.69
2019-06-25T19:04:45.535Z,31.69
2019-06-25T19:05:44.055Z,31.68
2019-06-25T19:06:42.599Z,31.66
2019-06-25T19:07:41.132Z,31.68
2019-06-25T19:08:39.821Z,31.7
2019-06-25T19:09:39.244Z,31.54
2019-06-25T19:10:40.741Z,31.63
2019-06-25T19:11:36.674Z,31.7
2019-06-25T19:12:35.281Z,31.63
2019-06-25T19:13:33.905Z,31.62
2019-06-25T19:14:32.482Z,31.58
2019-06-25T19:15:31.151Z,31.65
2019-06-25T19:16:29.750Z,31.65
2019-06-25T19:17:28.392Z,31.62
2019-06-25T19:18:27.043Z,31.56
2019-06-25T19:21:07.297Z,31.51
2019-06-25T19:22:06.022Z,31.53
2019-06-25T19:23:04.650Z,31.5
2019-06-25T19:24:03.358Z,31.51
2019-06-25T19:25:02.007Z,31.5
2019-06-25T19:26:00.607Z,31.38
2019-06-25T19:26:59.387Z,31.39
2019-06-25T19:29:39.818Z,31.35
2019-06-25T19:30:38.314Z,31.39
2019-06-25T19:31:36.888Z,31.43
2019-06-25T19:32:35.837Z,31.35
2019-06-25T19:33:34.409Z,31.28
2019-06-25T19:34:33.010Z,31.31
2019-06-25T19:35:31.609Z,31.26
2019-06-25T19:36:30.199Z,31.26
2019-06-25T19:37:28.711Z,31.28
2019-06-25T19:38:27.310Z,31.32
2019-06-25T19:39:25.873Z,31.2
2019-06-25T19:40:24.415Z,31.19
2019-06-25T19:41:23.092Z,31.2
2019-06-25T19:42:21.888Z,31.21
2019-06-25T19:43:20.463Z,31.25
2019-06-25T19:44:19.031Z,31.16
2019-06-25T19:45:17.786Z,31.09
2019-06-25T19:46:16.329Z,31.06
2019-06-25T19:47:14.907Z,31.16
2019-06-25T19:48:13.436Z,31.19
2019-06-25T19:49:12.032Z,31.06
2019-06-25T19:50:17.055Z,31.04
2019-06-25T19:51:09.399Z,31.06
2019-06-25T19:52:08.068Z,30.99
2019-06-25T19:53:06.657Z,31.04
2019-06-25T19:54:05.340Z,31.02
2019-06-25T19:55:04.005Z,31.02
2019-06-25T19:56:02.591Z,31.01
2019-06-25T19:57:01.152Z,30.86
2019-06-25T19:57:59.884Z,30.92
2019-06-25T19:58:58.680Z,30.98
2019-06-25T19:59:57.405Z,30.95
2019-06-25T20:00:55.953Z,30.92
2019-06-25T20:01:54.542Z,30.95
2019-06-25T20:02:53.082Z,30.86
2019-06-25T20:03:51.670Z,30.88
2019-06-25T20:04:50.239Z,30.82
2019-06-25T20:05:48.808Z,30.88
2019-06-25T20:06:47.607Z,30.84
2019-06-25T20:07:46.182Z,30.83
2019-06-25T20:10:21.125Z,30.75
2019-06-25T20:11:20.037Z,30.79
2019-06-25T20:12:18.586Z,30.73
2019-06-25T20:13:17.174Z,30.76
2019-06-25T20:14:15.824Z,30.77
2019-06-25T20:15:14.465Z,30.7
2019-06-25T20:16:13.043Z,30.69
2019-06-25T20:17:11.599Z,30.7
2019-06-25T20:18:10.121Z,30.62
2019-06-25T20:19:08.664Z,30.67
2019-06-25T20:20:07.290Z,30.62
2019-06-25T20:21:06.664Z,30.65